Time;durP1;ratioP1;P1;durP2;ratioP2;P2;SDS_P1;SDS_P2;PMS_P1;PMS_P2;Temp;Humidity;BMP_temperature;BMP_pressure;BME280_temperature;BME280_humidity;BME280_pressure;Samples;Min_cycle;Max_cycle;Signal;HPM_P1;HPM_P2
2022/11/26 00:02:28;;;;;;;41.60;19.30;;;;;;;0.34;99.73;101613.17;107465;1265;67814;-70
2022/11/26 00:04:58;;;;;;;46.00;23.70;;;;;;;0.37;99.55;101612.60;107363;1272;72714;-71
2022/11/26 00:07:29;;;;;;;47.20;22.90;;;;;;;0.43;99.98;101614.89;107272;1271;59944;-71
2022/11/26 00:09:59;;;;;;;42.70;19.90;;;;;;;0.47;100.00;101614.33;107244;1269;58830;-70
2022/11/26 00:12:33;;;;;;;43.50;23.50;;;;;;;0.52;99.99;101621.44;107259;1269;73643;-72
2022/11/26 00:15:25;;;;;;;44.50;23.40;;;;;;;0.54;99.69;101621.42;107448;1261;72002;-72
2022/11/26 00:17:55;;;;;;;49.00;22.60;;;;;;;0.61;99.89;101629.02;107455;1272;59791;-71
2022/11/26 00:20:30;;;;;;;48.00;24.70;;;;;;;0.66;99.93;101626.02;107409;1263;73767;-72
2022/11/26 00:23:02;;;;;;;45.80;22.90;;;;;;;0.65;99.79;101622.77;107347;1276;57167;-71
2022/11/26 00:25:45;;;;;;;48.10;21.70;;;;;;;0.65;100.00;101624.14;107314;1273;61192;-71
2022/11/26 00:28:33;;;;;;;51.70;24.30;;;;;;;0.64;100.00;101622.62;107324;1263;73999;-72
2022/11/26 00:31:11;;;;;;;46.50;22.30;;;;;;;0.61;100.00;101629.52;107473;1265;72777;-69
2022/11/26 00:33:40;;;;;;;51.00;24.30;;;;;;;0.60;99.77;101634.51;107361;1263;69060;-70
2022/11/26 00:36:24;;;;;;;43.30;23.40;;;;;;;0.47;98.75;101633.02;107300;1266;74258;-71
2022/11/26 00:39:18;;;;;;;27.70;15.20;;;;;;;0.52;99.29;101630.18;107335;1272;57694;-69
2022/11/26 00:41:51;;;;;;;45.80;22.40;;;;;;;0.49;99.06;101630.57;107439;1264;57098;-69
2022/11/26 00:44:23;;;;;;;48.10;23.30;;;;;;;0.42;98.62;101634.80;107468;1262;72782;-71
2022/11/26 00:46:52;;;;;;;43.10;20.80;;;;;;;0.41;99.42;101631.91;107576;1260;69267;-71
2022/11/26 00:49:21;;;;;;;44.90;21.70;;;;;;;0.37;99.23;101630.08;107522;1272;69641;-72
2022/11/26 00:51:50;;;;;;;44.90;21.70;;;;;;;0.35;99.35;101630.27;107445;1268;74126;-71
2022/11/26 00:54:19;;;;;;;39.30;20.20;;;;;;;0.38;99.23;101631.44;107445;1263;60047;-69
2022/11/26 00:56:49;;;;;;;45.10;22.20;;;;;;;0.35;98.92;101627.02;107452;1268;59495;-73
2022/11/26 00:59:21;;;;;;;43.70;20.80;;;;;;;0.32;99.03;101629.13;107495;1268;71585;-73
2022/11/26 01:01:50;;;;;;;43.40;22.10;;;;;;;0.29;99.11;101630.88;107538;1261;70639;-72
2022/11/26 01:04:19;;;;;;;46.70;22.90;;;;;;;0.29;99.18;101629.69;107466;1270;68080;-71
2022/11/26 01:06:47;;;;;;;47.00;21.70;;;;;;;0.28;99.07;101631.41;107462;1263;73238;-71
2022/11/26 01:09:20;;;;;;;43.60;21.60;;;;;;;0.31;99.76;101629.32;106331;1265;1582970;-70
2022/11/26 01:11:49;;;;;;;47.30;22.70;;;;;;;0.38;99.45;101632.98;107360;1266;60312;-73
2022/11/26 01:14:22;;;;;;;39.80;21.50;;;;;;;0.38;99.24;101630.59;107382;1266;72342;-72
2022/11/26 01:16:53;;;;;;;44.00;21.60;;;;;;;0.41;99.09;101627.44;107624;1264;71636;-70
2022/11/26 01:19:22;;;;;;;41.30;20.30;;;;;;;0.41;99.17;101627.96;107336;1275;58930;-70
2022/11/26 01:21:51;;;;;;;39.30;19.30;;;;;;;0.40;98.51;101623.34;107336;1270;73404;-70
2022/11/26 01:24:19;;;;;;;41.80;20.40;;;;;;;0.40;98.34;101622.15;107440;1273;62715;-71
2022/11/26 01:26:48;;;;;;;40.00;19.50;;;;;;;0.38;98.62;101617.72;107486;1273;59266;-71
2022/11/26 01:29:18;;;;;;;41.60;19.80;;;;;;;0.42;98.98;101618.52;107477;1269;71703;-69
2022/11/26 01:31:47;;;;;;;45.50;22.70;;;;;;;0.46;98.86;101622.74;107583;1264;70042;-69
2022/11/26 01:34:16;;;;;;;41.50;19.80;;;;;;;0.43;97.81;101624.50;107496;1270;68628;-70
2022/11/26 01:36:44;;;;;;;44.20;19.50;;;;;;;0.42;97.77;101625.55;107458;1263;74073;-70
2022/11/26 01:39:15;;;;;;;45.50;20.10;;;;;;;0.37;97.39;101625.11;107471;1270;60334;-70
2022/11/26 01:42:05;;;;;;;42.80;21.20;;;;;;;0.34;97.30;101618.13;107496;1272;59411;-70
2022/11/26 01:44:36;;;;;;;40.10;20.00;;;;;;;0.30;97.61;101614.08;107406;1266;62765;-70
2022/11/26 01:47:23;;;;;;;43.20;19.60;;;;;;;0.23;97.55;101616.92;107449;1267;69458;-71
2022/11/26 01:50:33;;;;;;;43.10;19.60;;;;;;;0.23;97.39;101617.77;107491;1263;59902;-69
2022/11/26 01:53:39;;;;;;;36.00;18.10;;;;;;;0.19;97.50;101611.50;107398;1263;72372;-70
2022/11/26 01:56:21;;;;;;;42.70;21.10;;;;;;;0.15;97.60;101612.94;107412;1272;61923;-70
2022/11/26 01:58:59;;;;;;;46.90;22.30;;;;;;;0.12;97.62;101617.60;107420;1264;61611;-70
2022/11/26 02:01:28;;;;;;;29.00;13.60;;;;;;;0.12;98.05;101619.49;107396;1270;63352;-71
2022/11/26 02:04:38;;;;;;;48.10;22.30;;;;;;;0.20;98.80;101618.52;107502;1261;71307;-70
2022/11/26 02:07:07;;;;;;;45.80;21.80;;;;;;;0.21;98.08;101615.41;107389;1270;68181;-71
2022/11/26 02:09:35;;;;;;;44.30;20.60;;;;;;;0.22;97.74;101620.02;107391;1266;73735;-70
2022/11/26 02:12:04;;;;;;;45.30;19.90;;;;;;;0.28;98.35;101622.33;107444;1261;61013;-71
2022/11/26 02:14:40;;;;;;;48.90;21.40;;;;;;;0.31;97.91;101624.02;107572;1261;60199;-70
2022/11/26 02:17:20;;;;;;;38.70;17.40;;;;;;;0.33;97.86;101625.86;107355;1269;72097;-69
2022/11/26 02:20:19;;;;;;;48.80;21.40;;;;;;;0.38;98.09;101629.05;107482;1263;61698;-71
2022/11/26 02:22:54;;;;;;;44.60;20.80;;;;;;;0.52;98.75;101628.46;107469;1270;70248;-68
2022/11/26 02:26:11;;;;;;;47.50;23.00;;;;;;;0.59;97.95;101631.79;107406;1267;74059;-70
2022/11/26 02:29:06;;;;;;;38.20;18.70;;;;;;;0.63;97.19;101634.64;107428;1270;58005;-69
2022/11/26 02:31:45;;;;;;;50.80;21.00;;;;;;;0.68;96.58;101632.66;107456;1273;59633;-69
2022/11/26 02:34:40;;;;;;;45.10;21.10;;;;;;;0.66;96.36;101631.33;107337;1276;73000;-74
2022/11/26 02:37:17;;;;;;;41.90;18.50;;;;;;;0.71;97.11;101631.40;107545;1266;69889;-73
2022/11/26 02:39:46;;;;;;;40.40;19.00;;;;;;;0.75;96.76;101632.71;107620;1266;59893;-70
2022/11/26 02:42:29;;;;;;;38.60;18.80;;;;;;;0.81;96.20;101632.79;107598;1263;72243;-69
2022/11/26 02:45:06;;;;;;;38.90;18.10;;;;;;;0.85;95.49;101636.32;107541;1265;59180;-69
2022/11/26 02:47:38;;;;;;;39.20;18.60;;;;;;;0.86;94.99;101640.09;107557;1272;60742;-70
2022/11/26 02:50:31;;;;;;;34.90;17.20;;;;;;;0.86;94.75;101645.75;107570;1274;71721;-70
2022/11/26 02:53:02;;;;;;;40.40;19.70;;;;;;;0.85;94.84;101647.48;107810;1261;70159;-70
2022/11/26 02:55:37;;;;;;;37.60;18.00;;;;;;;0.88;94.79;101641.42;107584;1266;69682;-70
2022/11/26 02:58:06;;;;;;;33.20;15.80;;;;;;;0.88;94.87;101639.54;107561;1272;63892;-70
2022/11/26 03:00:38;;;;;;;40.60;17.90;;;;;;;0.90;94.61;101644.13;107542;1266;61860;-70
2022/11/26 03:03:21;;;;;;;33.40;15.30;;;;;;;0.90;94.14;101642.06;107595;1268;59668;-71
2022/11/26 03:06:00;;;;;;;40.20;20.60;;;;;;;0.89;93.63;101649.46;107631;1262;70751;-70
2022/11/26 03:08:31;;;;;;;33.40;16.40;;;;;;;0.85;93.73;101642.83;107696;1266;72621;-70
2022/11/26 03:11:00;;;;;;;38.90;18.80;;;;;;;0.79;93.76;101647.73;107535;1264;70491;-69
2022/11/26 03:13:28;;;;;;;39.20;19.80;;;;;;;0.82;94.11;101652.15;107603;1266;74210;-69
2022/11/26 03:15:57;;;;;;;37.30;18.40;;;;;;;0.80;94.24;101655.27;107645;1261;57632;-72
2022/11/26 03:18:26;;;;;;;40.60;20.10;;;;;;;0.76;94.08;101657.23;107686;1270;59580;-70
2022/11/26 03:20:55;;;;;;;37.90;17.40;;;;;;;0.82;94.51;101656.95;107541;1263;73521;-69
2022/11/26 03:23:23;;;;;;;33.00;16.00;;;;;;;0.85;94.25;101658.63;107749;1263;72298;-72
2022/11/26 03:25:52;;;;;;;38.50;19.00;;;;;;;0.81;94.20;101660.23;107663;1271;69018;-73
2022/11/26 03:28:21;;;;;;;38.40;17.00;;;;;;;0.78;94.14;101661.98;107671;1265;72092;-72
2022/11/26 03:30:52;;;;;;;42.50;20.50;;;;;;;0.78;94.47;101661.65;107623;1266;61684;-71
2022/11/26 03:33:20;;;;;;;42.90;19.20;;;;;;;0.81;95.07;101664.00;107513;1266;60060;-71
2022/11/26 03:35:49;;;;;;;46.40;20.60;;;;;;;0.81;95.08;101665.90;107531;1266;71236;-71
2022/11/26 03:38:18;;;;;;;40.30;19.00;;;;;;;0.76;94.60;101662.87;107761;1268;70245;-71
2022/11/26 03:41:02;;;;;;;43.70;21.20;;;;;;;0.76;94.83;101670.95;107622;1262;69691;-72
2022/11/26 03:43:31;;;;;;;39.10;20.00;;;;;;;0.69;94.94;101667.45;107626;1266;73043;-71
2022/11/26 03:45:59;;;;;;;39.00;18.40;;;;;;;0.71;94.82;101669.83;107581;1266;61710;-72
2022/11/26 03:48:28;;;;;;;38.20;18.40;;;;;;;0.79;95.26;101669.34;107636;1270;59156;-72
2022/11/26 03:50:57;;;;;;;47.00;22.20;;;;;;;0.78;95.10;101672.10;107661;1271;72817;-72
2022/11/26 03:53:25;;;;;;;39.90;19.20;;;;;;;0.86;95.44;101673.00;107724;1264;72578;-71
2022/11/26 03:55:54;;;;;;;36.70;16.80;;;;;;;0.84;95.08;101680.58;107655;1266;68090;-71
2022/11/26 03:58:23;;;;;;;42.60;18.00;;;;;;;0.85;95.07;101684.86;107627;1270;73829;-71
2022/11/26 04:00:52;;;;;;;40.50;19.80;;;;;;;0.83;95.14;101692.09;107642;1271;57658;-71
2022/11/26 04:03:21;;;;;;;40.70;19.50;;;;;;;0.83;94.49;101692.42;107631;1262;61255;-70
2022/11/26 04:05:49;;;;;;;36.20;16.30;;;;;;;0.80;94.55;101697.98;107549;1266;72817;-70
2022/11/26 04:08:18;;;;;;;40.10;18.80;;;;;;;0.83;94.41;101699.65;107711;1264;70316;-70
2022/11/26 04:10:46;;;;;;;26.30;11.80;;;;;;;0.76;94.81;101697.34;107638;1262;68666;-69
2022/11/26 04:13:15;;;;;;;40.20;18.50;;;;;;;0.80;94.57;101697.27;107596;1265;71743;-70
2022/11/26 04:15:44;;;;;;;43.90;19.70;;;;;;;0.76;94.74;101701.63;107514;1269;60487;-71
2022/11/26 04:18:13;;;;;;;36.60;18.40;;;;;;;0.77;94.80;101703.66;107604;1266;61032;-70
2022/11/26 04:20:42;;;;;;;35.60;18.00;;;;;;;0.83;95.01;101704.61;107622;1266;74302;-70
2022/11/26 04:23:10;;;;;;;36.50;19.10;;;;;;;0.83;94.88;101706.67;107681;1262;70274;-72
2022/11/26 04:25:39;;;;;;;40.20;18.20;;;;;;;0.91;95.29;101706.70;107691;1266;67946;-70
2022/11/26 04:28:08;;;;;;;36.30;17.70;;;;;;;0.89;95.31;101706.75;107631;1274;73890;-70
2022/11/26 04:30:37;;;;;;;33.00;15.10;;;;;;;0.92;95.02;101712.02;107683;1267;60739;-71
2022/11/26 04:33:06;;;;;;;41.20;18.20;;;;;;;0.91;94.61;101717.52;107684;1271;61055;-71
2022/11/26 04:35:34;;;;;;;38.90;18.90;;;;;;;0.87;94.79;101724.09;107653;1270;72804;-70
2022/11/26 04:38:03;;;;;;;38.30;19.10;;;;;;;0.84;94.99;101728.60;107754;1260;69534;-71
2022/11/26 04:40:32;;;;;;;36.20;16.30;;;;;;;0.85;95.16;101726.88;107642;1267;69699;-71
2022/11/26 04:43:00;;;;;;;34.90;16.70;;;;;;;0.88;95.44;101731.45;107562;1266;64544;-72
2022/11/26 04:45:29;;;;;;;37.60;17.00;;;;;;;0.87;95.36;101730.63;107692;1262;59727;-71
2022/11/26 04:47:58;;;;;;;30.80;14.90;;;;;;;0.84;95.43;101729.81;107695;1263;60580;-71
2022/11/26 04:50:27;;;;;;;31.90;15.40;;;;;;;0.85;95.24;101739.75;107590;1263;72679;-71
2022/11/26 04:52:56;;;;;;;37.70;18.50;;;;;;;0.83;94.93;101741.99;107708;1257;72575;-71
2022/11/26 04:55:24;;;;;;;33.90;16.70;;;;;;;0.84;95.17;101746.09;107786;1272;69690;-70
2022/11/26 04:57:53;;;;;;;30.60;15.50;;;;;;;0.83;95.24;101748.17;107678;1272;62840;-71
2022/11/26 05:00:22;;;;;;;29.00;14.70;;;;;;;0.84;95.64;101749.36;107665;1261;59825;-71
2022/11/26 05:02:50;;;;;;;33.30;16.40;;;;;;;0.86;95.98;101747.27;107674;1263;61196;-71
2022/11/26 05:05:20;;;;;;;36.60;18.70;;;;;;;0.93;96.49;101744.75;107580;1274;73151;-71
2022/11/26 05:07:48;;;;;;;39.90;18.90;;;;;;;0.92;96.06;101741.52;107790;1262;71803;-72
2022/11/26 05:10:17;;;;;;;31.90;14.10;;;;;;;0.91;96.15;101743.93;107687;1270;68350;-71
2022/11/26 05:12:46;;;;;;;36.80;18.10;;;;;;;0.88;95.76;101742.60;107691;1267;71842;-72
2022/11/26 05:15:15;;;;;;;33.00;15.60;;;;;;;0.79;96.25;101740.52;107680;1267;60363;-73
2022/11/26 05:17:43;;;;;;;37.10;18.60;;;;;;;0.85;96.37;101744.20;107620;1267;61117;-73
2022/11/26 05:20:13;;;;;;;34.70;16.80;;;;;;;0.79;96.99;101748.23;107681;1262;72133;-73
2022/11/26 05:22:42;;;;;;;30.70;13.60;;;;;;;0.88;97.06;101750.85;107825;1272;70194;-73
2022/11/26 05:25:11;;;;;;;36.20;16.80;;;;;;;0.87;96.44;101751.04;107668;1261;68553;-72
2022/11/26 05:27:40;;;;;;;37.10;18.10;;;;;;;0.83;96.11;101750.73;107658;1275;73428;-71
2022/11/26 05:30:10;;;;;;;36.40;17.50;;;;;;;0.81;95.96;101753.17;107668;1268;60526;-71
2022/11/26 05:32:39;;;;;;;23.40;11.90;;;;;;;0.81;95.98;101758.30;107685;1266;60723;-71
2022/11/26 05:35:08;;;;;;;38.50;20.00;;;;;;;0.73;96.33;101761.02;107634;1262;73971;-70
2022/11/26 05:37:37;;;;;;;27.40;13.30;;;;;;;0.78;96.67;101766.25;107645;1264;71834;-72
2022/11/26 05:40:07;;;;;;;39.60;17.80;;;;;;;0.79;96.37;101768.64;107598;1266;70252;-73
2022/11/26 05:42:36;;;;;;;41.20;20.10;;;;;;;0.80;96.62;101767.95;107698;1266;72271;-71
2022/11/26 05:45:05;;;;;;;36.70;18.00;;;;;;;0.80;96.59;101765.53;107651;1266;61217;-71
2022/11/26 05:47:34;;;;;;;34.90;16.00;;;;;;;0.83;96.38;101773.04;107795;1261;60294;-70
2022/11/26 05:50:04;;;;;;;31.60;15.90;;;;;;;0.85;96.26;101768.05;107730;1267;71787;-71
2022/11/26 05:52:33;;;;;;;38.90;18.40;;;;;;;0.89;96.54;101766.27;107651;1264;71820;-71
2022/11/26 05:55:02;;;;;;;41.60;19.40;;;;;;;0.91;96.26;101770.85;107660;1265;70713;-71
2022/11/26 05:57:30;;;;;;;35.00;18.40;;;;;;;0.92;95.80;101774.95;107675;1266;74107;-71
2022/11/26 05:59:59;;;;;;;33.80;17.40;;;;;;;0.95;95.42;101774.90;107680;1260;59809;-71
2022/11/26 06:02:28;;;;;;;32.90;15.40;;;;;;;0.94;95.39;101782.31;107569;1267;58641;-70
2022/11/26 06:04:57;;;;;;;35.80;17.90;;;;;;;0.88;95.01;101788.05;107691;1260;73490;-71
2022/11/26 06:07:25;;;;;;;37.20;19.70;;;;;;;0.91;95.33;101791.27;107840;1260;72488;-70
2022/11/26 06:09:54;;;;;;;38.20;17.90;;;;;;;0.93;95.50;101788.16;107708;1269;68598;-72
2022/11/26 06:12:23;;;;;;;30.90;16.10;;;;;;;1.05;95.67;101790.89;107712;1267;73705;-72
2022/11/26 06:14:52;;;;;;;36.60;17.90;;;;;;;1.08;95.24;101797.17;107853;1260;60835;-71
2022/11/26 06:17:21;;;;;;;38.30;19.30;;;;;;;1.13;95.18;101799.16;107725;1262;60414;-73
2022/11/26 06:19:49;;;;;;;33.50;17.80;;;;;;;1.08;94.35;101801.65;107713;1266;73912;-72
2022/11/26 06:22:18;;;;;;;40.70;18.80;;;;;;;1.09;94.50;101807.62;107773;1261;60842;-74
2022/11/26 06:24:47;;;;;;;32.20;15.60;;;;;;;1.14;94.41;101813.04;107755;1265;59898;-72
2022/11/26 06:27:16;;;;;;;40.60;18.80;;;;;;;1.18;94.14;101808.52;107745;1265;71888;-73
2022/11/26 06:29:44;;;;;;;38.80;21.10;;;;;;;1.19;94.03;101813.82;107735;1265;61316;-70
2022/11/26 06:32:13;;;;;;;48.20;25.80;;;;;;;1.22;94.28;101818.05;107624;1270;60923;-72
2022/11/26 06:34:42;;;;;;;41.80;22.00;;;;;;;1.27;93.77;101818.69;107702;1270;71628;-72
2022/11/26 06:37:12;;;;;;;36.00;18.10;;;;;;;1.23;93.58;101817.70;107844;1261;71562;-71
2022/11/26 06:39:41;;;;;;;35.50;18.90;;;;;;;1.35;93.32;101821.28;107768;1260;69424;-73
2022/11/26 06:42:10;;;;;;;32.40;14.00;;;;;;;1.34;93.35;101818.23;107705;1274;70390;-75
2022/11/26 06:44:39;;;;;;;36.10;17.20;;;;;;;1.37;92.14;101828.46;107648;1262;59891;-71
2022/11/26 06:47:12;;;;;;;36.30;16.70;;;;;;;1.42;91.87;101824.09;107696;1272;59659;-70
2022/11/26 06:49:41;;;;;;;36.50;17.70;;;;;;;1.38;91.64;101819.52;107516;1260;62958;-71
2022/11/26 06:52:10;;;;;;;34.80;18.10;;;;;;;1.40;91.94;101821.73;107843;1262;69425;-73
2022/11/26 06:54:38;;;;;;;37.30;19.40;;;;;;;1.46;91.83;101823.52;107711;1268;70415;-72
2022/11/26 06:57:08;;;;;;;43.00;19.10;;;;;;;1.55;91.27;101822.33;107698;1270;73043;-72
2022/11/26 06:59:36;;;;;;;40.60;19.50;;;;;;;1.58;90.52;101822.43;107682;1269;61572;-72
2022/11/26 07:02:05;;;;;;;39.00;18.10;;;;;;;1.66;90.72;101824.20;107644;1270;58984;-72
2022/11/26 07:04:35;;;;;;;34.10;17.60;;;;;;;1.70;90.67;101825.48;107688;1266;72390;-71
2022/11/26 07:07:04;;;;;;;35.40;17.20;;;;;;;1.69;90.07;101832.20;107792;1264;69459;-71
2022/11/26 07:09:32;;;;;;;37.10;19.40;;;;;;;1.67;89.84;101828.98;107566;1267;70478;-70
2022/11/26 07:12:01;;;;;;;36.40;17.90;;;;;;;1.61;89.34;101835.61;107405;1260;72311;-72
2022/11/26 07:14:29;;;;;;;39.60;20.90;;;;;;;1.61;89.45;101839.91;107506;1261;62013;-70
2022/11/26 07:16:58;;;;;;;36.20;17.50;;;;;;;1.60;89.52;101846.79;107517;1268;60793;-70
2022/11/26 07:19:27;;;;;;;34.20;16.60;;;;;;;1.65;89.86;101846.02;107567;1266;71543;-70
2022/11/26 07:21:56;;;;;;;32.60;14.80;;;;;;;1.69;89.43;101852.30;107675;1258;71373;-73
2022/11/26 07:24:24;;;;;;;34.10;17.70;;;;;;;1.50;89.26;101862.08;107550;1266;69881;-73
2022/11/26 07:26:53;;;;;;;34.00;17.00;;;;;;;1.49;89.70;101865.34;107493;1268;71076;-71
2022/11/26 07:29:21;;;;;;;36.70;17.90;;;;;;;1.62;89.39;101866.68;107534;1266;61307;-70
2022/11/26 07:31:50;;;;;;;30.90;15.00;;;;;;;1.58;89.00;101868.28;107652;1264;60003;-72
2022/11/26 07:34:19;;;;;;;37.90;18.10;;;;;;;1.50;89.10;101870.14;107598;1270;72652;-72
2022/11/26 07:36:48;;;;;;;36.90;19.10;;;;;;;1.58;89.28;101871.56;107767;1261;70271;-72
2022/11/26 07:39:17;;;;;;;35.60;16.90;;;;;;;1.55;89.15;101878.12;107575;1264;70520;-73
2022/11/26 07:41:45;;;;;;;33.70;17.30;;;;;;;1.57;89.42;101877.59;107732;1261;73289;-70
2022/11/26 07:44:14;;;;;;;31.30;16.60;;;;;;;1.61;89.14;101878.03;107622;1261;60858;-70
2022/11/26 07:46:43;;;;;;;39.10;18.60;;;;;;;1.75;89.41;101875.55;107647;1266;58858;-71
2022/11/26 07:49:12;;;;;;;28.30;13.70;;;;;;;1.74;88.65;101874.88;107707;1274;73934;-69
2022/11/26 07:51:41;;;;;;;31.20;16.30;;;;;;;1.90;88.34;101874.61;107754;1265;70093;-71
2022/11/26 07:54:10;;;;;;;31.40;15.40;;;;;;;2.05;88.21;101872.27;107620;1260;69433;-72
2022/11/26 07:56:38;;;;;;;30.10;15.20;;;;;;;2.10;87.79;101873.21;107627;1270;72773;-78
2022/11/26 07:59:09;;;;;;;29.30;12.70;;;;;;;2.20;88.09;101873.19;107718;1267;59347;-79
2022/11/26 08:01:38;;;;;;;31.80;17.60;;;;;;;2.32;86.56;101872.27;107571;1264;61206;-74
2022/11/26 08:04:07;;;;;;;26.70;13.90;;;;;;;2.32;86.65;101873.81;107688;1266;74352;-72
2022/11/26 08:06:35;;;;;;;28.90;14.90;;;;;;;2.53;86.02;101883.54;107805;1257;71954;-71
2022/11/26 08:09:04;;;;;;;33.30;17.40;;;;;;;2.47;85.07;101875.58;107713;1265;69819;-72
2022/11/26 08:11:33;;;;;;;33.20;16.90;;;;;;;2.53;85.72;101874.26;107640;1266;71568;-71
2022/11/26 08:14:09;;;;;;;27.50;16.10;;;;;;;2.65;86.44;101880.20;107659;1270;60321;-71
2022/11/26 08:16:39;;;;;;;27.10;14.60;;;;;;;2.62;84.61;101878.38;107628;1266;59438;-74
2022/11/26 08:19:12;;;;;;;27.10;15.30;;;;;;;2.63;84.18;101884.02;107646;1267;71396;-72
2022/11/26 08:21:41;;;;;;;25.70;15.00;;;;;;;2.54;83.99;101882.16;107678;1262;71449;-72
2022/11/26 08:24:14;;;;;;;27.10;14.00;;;;;;;2.57;84.12;101893.45;107626;1266;70816;-71
2022/11/26 08:26:43;;;;;;;26.30;14.30;;;;;;;2.66;82.98;101893.10;107730;1262;73592;-72
2022/11/26 08:29:13;;;;;;;27.70;14.60;;;;;;;2.52;83.01;101894.74;107647;1266;61003;-72
2022/11/26 08:31:42;;;;;;;25.10;14.40;;;;;;;2.45;83.28;101891.45;107630;1260;60765;-71
2022/11/26 08:34:15;;;;;;;28.50;16.70;;;;;;;2.51;83.09;101890.65;107586;1263;73851;-72
2022/11/26 08:36:45;;;;;;;27.50;14.70;;;;;;;2.48;83.86;101897.92;107662;1267;70141;-71
2022/11/26 08:39:16;;;;;;;24.20;12.70;;;;;;;2.68;83.14;101892.19;107613;1272;70558;-71
2022/11/26 08:41:46;;;;;;;20.80;11.80;;;;;;;2.75;82.23;101898.58;107547;1269;72684;-72
2022/11/26 08:44:20;;;;;;;25.70;12.80;;;;;;;2.79;81.97;101898.83;107533;1267;61217;-76
2022/11/26 08:46:49;;;;;;;24.80;13.00;;;;;;;2.87;81.52;101899.86;107721;1265;59910;-71
2022/11/26 08:49:18;;;;;;;23.60;15.40;;;;;;;2.92;81.28;101901.66;107663;1269;71611;-73
2022/11/26 08:51:46;;;;;;;25.70;13.40;;;;;;;2.81;81.58;101908.27;107767;1261;72087;-71
2022/11/26 08:54:15;;;;;;;28.00;15.20;;;;;;;2.92;81.18;101909.23;107641;1259;69115;-74
2022/11/26 08:56:44;;;;;;;26.40;14.90;;;;;;;2.91;81.53;101903.91;107523;1268;71888;-73
2022/11/26 08:59:13;;;;;;;24.60;12.40;;;;;;;2.94;80.84;101912.95;107693;1266;61281;-72
2022/11/26 09:01:42;;;;;;;28.40;14.20;;;;;;;3.08;80.39;101904.91;107665;1266;60826;-73
2022/11/26 09:04:11;;;;;;;24.90;13.20;;;;;;;3.12;80.53;101912.23;107693;1269;71228;-73
2022/11/26 09:06:40;;;;;;;26.40;14.70;;;;;;;3.11;80.33;101922.23;107751;1261;71394;-73
2022/11/26 09:09:11;;;;;;;22.20;12.50;;;;;;;3.02;80.14;101919.85;107644;1266;69645;-72
2022/11/26 09:12:01;;;;;;;28.00;14.10;;;;;;;3.14;79.59;101926.13;107656;1261;74097;-73
2022/11/26 09:14:36;;;;;;;23.70;12.80;;;;;;;3.06;79.69;101926.48;107611;1263;61741;-73
2022/11/26 09:17:06;;;;;;;22.10;11.90;;;;;;;3.09;79.76;101924.70;107628;1266;60334;-74
2022/11/26 09:19:35;;;;;;;25.10;12.90;;;;;;;3.16;79.16;101920.92;107527;1270;70593;-72
2022/11/26 09:22:04;;;;;;;25.60;13.70;;;;;;;3.17;79.17;101916.60;107773;1261;69487;-72
2022/11/26 09:24:33;;;;;;;20.70;11.90;;;;;;;3.25;79.37;101916.23;107704;1265;70476;-74
2022/11/26 09:27:01;;;;;;;21.50;11.70;;;;;;;3.35;78.57;101922.22;107672;1266;73673;-74
2022/11/26 09:29:35;;;;;;;22.70;13.10;;;;;;;3.28;78.36;101917.56;107634;1269;61244;-73
2022/11/26 09:32:04;;;;;;;23.50;13.10;;;;;;;3.42;78.04;101913.94;107793;1260;58877;-73
2022/11/26 09:34:53;;;;;;;24.60;12.40;;;;;;;3.47;77.48;101916.77;107721;1260;73456;-74
2022/11/26 09:37:21;;;;;;;22.50;12.10;;;;;;;3.42;78.28;101912.05;107661;1263;72537;-74
2022/11/26 09:39:52;;;;;;;20.60;11.60;;;;;;;3.53;78.78;101911.30;107690;1259;69812;-73
2022/11/26 09:42:54;;;;;;;25.10;12.60;;;;;;;3.62;78.13;101912.79;107625;1273;71912;-74
2022/11/26 09:45:44;;;;;;;24.10;12.60;;;;;;;3.72;77.66;101911.17;107708;1260;59648;-73
2022/11/26 09:48:23;;;;;;;17.80;10.10;;;;;;;3.85;77.16;101913.63;107604;1267;57666;-73
2022/11/26 09:51:08;;;;;;;23.60;11.90;;;;;;;3.92;76.82;101924.80;107576;1261;63062;-73
2022/11/26 09:53:46;;;;;;;19.90;10.90;;;;;;;3.84;77.56;101918.64;107811;1261;72215;-76
2022/11/26 09:56:25;;;;;;;23.60;12.00;;;;;;;3.77;77.02;101922.07;107491;1273;70037;-78
2022/11/26 09:59:05;;;;;;;21.20;12.80;;;;;;;3.69;76.99;101926.22;107691;1258;63254;-78
2022/11/26 10:01:34;;;;;;;20.50;10.00;;;;;;;3.55;77.75;101929.86;107751;1260;57600;-79
2022/11/26 10:04:07;;;;;;;24.30;13.60;;;;;;;3.51;78.09;101928.89;107747;1261;58712;-79
2022/11/26 10:07:11;;;;;;;17.40;10.30;;;;;;;3.59;78.65;101920.29;107626;1261;72821;-79
2022/11/26 10:10:40;;;;;;;20.50;12.10;;;;;;;3.70;78.09;101922.60;107596;1254;72147;-78
2022/11/26 10:13:43;;;;;;;15.70;8.90;;;;;;;3.48;77.59;101918.47;107140;1270;59388;-80
2022/11/26 10:16:37;;;;;;;22.40;12.50;;;;;;;3.57;76.73;101915.67;107115;1269;62285;-78
2022/11/26 10:19:27;;;;;;;;;;;;;;;3.53;76.77;101915.96;107505;1273;62107;-78
2022/11/26 10:22:02;;;;;;;22.90;12.10;;;;;;;3.46;76.72;101916.44;107573;1260;57616;-78
2022/11/26 10:24:41;;;;;;;20.40;10.70;;;;;;;3.39;77.89;101916.11;107472;1263;73465;-77
2022/11/26 10:27:15;;;;;;;18.30;11.00;;;;;;;3.42;78.03;101915.18;107698;1261;61452;-77
2022/11/26 10:29:59;;;;;;;25.00;12.30;;;;;;;3.50;78.53;101904.48;107487;1263;59635;-78
2022/11/26 10:32:40;;;;;;;24.40;13.10;;;;;;;3.50;78.98;101913.27;107542;1262;74536;-76
2022/11/26 10:35:41;;;;;;;20.70;10.60;;;;;;;3.52;79.18;101918.89;107411;1266;59879;-75
2022/11/26 10:38:10;;;;;;;20.50;11.90;;;;;;;3.51;78.15;101920.47;107420;1261;60386;-75
2022/11/26 10:40:38;;;;;;;20.00;10.50;;;;;;;3.52;78.80;101916.30;107387;1266;64368;-75
2022/11/26 10:43:07;;;;;;;19.90;11.20;;;;;;;3.55;78.91;101915.55;107591;1261;62976;-74
2022/11/26 10:45:48;;;;;;;22.30;11.40;;;;;;;3.61;79.25;101919.36;107518;1260;68410;-75
2022/11/26 10:48:32;;;;;;;21.20;11.60;;;;;;;3.61;79.57;101917.63;107531;1267;62512;-74
2022/11/26 10:51:18;;;;;;;;;;;;;;;3.68;78.84;101926.96;107400;1260;61533;-75
2022/11/26 10:54:04;;;;;;;20.40;11.20;;;;;;;3.70;79.02;101926.38;107547;1266;58116;-74
2022/11/26 10:56:42;;;;;;;27.20;12.80;;;;;;;3.76;79.32;101925.55;107299;1270;72626;-76
2022/11/26 10:59:35;;;;;;;23.70;12.20;;;;;;;3.73;79.41;101924.25;107469;1264;61750;-75
2022/11/26 11:02:26;;;;;;;27.60;13.70;;;;;;;3.86;79.89;101923.23;107525;1267;69697;-74
2022/11/26 11:04:59;;;;;;;22.70;12.90;;;;;;;3.96;79.22;101920.89;107518;1269;73432;-75
2022/11/26 11:07:41;;;;;;;17.50;9.20;;;;;;;4.00;79.22;101924.42;107640;1258;62899;-74
2022/11/26 11:10:10;;;;;;;20.20;11.30;;;;;;;4.07;78.00;101927.02;107573;1271;57722;-74
2022/11/26 11:13:00;;;;;;;19.90;10.70;;;;;;;4.02;78.01;101927.64;107599;1266;63083;-73
2022/11/26 11:15:34;;;;;;;26.30;13.10;;;;;;;3.85;78.92;101931.01;107664;1257;72144;-79
2022/11/26 11:18:03;;;;;;;21.60;11.40;;;;;;;3.91;78.82;101928.95;107422;1262;70745;-71
2022/11/26 11:20:49;;;;;;;21.80;11.60;;;;;;;3.89;78.81;101928.66;107560;1261;74322;-72
2022/11/26 11:23:22;;;;;;;19.80;10.80;;;;;;;3.83;79.23;101929.33;107545;1260;62770;-73
2022/11/26 11:26:22;;;;;;;20.80;11.90;;;;;;;3.85;79.13;101932.73;107651;1260;57628;-74
2022/11/26 11:28:55;;;;;;;25.10;12.70;;;;;;;3.84;79.51;101931.56;107591;1267;62913;-73
2022/11/26 11:31:25;;;;;;;24.40;12.30;;;;;;;3.79;79.58;101930.64;107543;1261;72582;-73
2022/11/26 11:34:26;;;;;;;14.70;8.20;;;;;;;3.78;80.06;101926.03;107526;1261;59515;-73
2022/11/26 11:37:16;;;;;;;23.80;12.80;;;;;;;3.81;80.30;101917.84;107425;1260;73851;-72
2022/11/26 11:39:45;;;;;;;23.20;12.20;;;;;;;3.95;80.72;101932.81;107652;1264;61337;-72